Palisade, South Dakota
Current Conditions -  °F | °C
As of 10:56 AM on Thursday 30 Oct 2014 (Local Time) from KFSD Reporting Station
Few Clouds Few Clouds  
Wind Chill: 52°   Ceiling: Unl
Heat Index: 52°   Visibility: 10mi
Dew Point: 38°   Wind: 16mph
Humidity: 59%   Direction: 350°N
Pressure: 30.08"   Gusts: NA
Location:  43.7606°N, 96.5516°W
Report Text: KFSD 301556Z 35014KT 10SM FEW030 11/03 A3008 RMK AO2 SLP193 T01110033
Loading
Personal Weather Stations






























Interactive Weather Map
Tropical Storm Tracking
New forecast layout! Learn more

10-Day Weather Forecast

Advertisements
Track Severe Weather on mobile